Mc Alester Regional Airport Mc Alester US
ICAO: KMLC
IATA: MLC
Category: Medium
Scheduled Services: No

Elevation: 770 ft
TransAlt. 18000 ft.

Airport Communications:
ASOS:135.125
FORT WORTH CNTR:132.2
RDO:122.65
CTAF/UNICOM:122.95

KMLC Zoom In..

Runways:

(A) RW 02 length 5602 ft width 100 ft
LOC 108.30 / hdg 14

(B) RW 20 length 5602 ft width 100 ft
LOC 108.30 / hdg 194

Location; KMLC
Day. 23 / Time. 21.53 Zulu
* Altimeter: 30.02
* Temperature: 29° c. 84.2°f.
* Wind from: 140° Speed 04 kn.
Dewpoint: 21° c.
Visibility: 10 Statute Miles.
Clouds: Few 5500 ft.
Clouds: Few 8500 ft.

KMLC 232153Z AUTO 14004KT 10SM FEW055 FEW085 29/21 A3002 RMK AO2 LTG DSNT NW SLP155 T02940206


Wind From 140°
Speed 04 kn.

 
 
jpsmedia.com for Web Design SOUNDCLOUD worldairports.se 2018   terms of use